sensor_id;sensor_type;location;lat;lon;timestamp;temperature;humidity
62476;DHT22;50739;45.670;11.936;2023-08-01T00:00:00;24.73;81.01
62476;DHT22;50739;45.670;11.936;2023-08-01T00:05:04;24.84;80.34
62476;DHT22;50739;45.670;11.936;2023-08-01T00:10:06;24.86;80.60
62476;DHT22;50739;45.670;11.936;2023-08-01T00:15:11;24.50;81.41
62476;DHT22;50739;45.670;11.936;2023-08-01T00:20:13;24.43;81.67
62476;DHT22;50739;45.670;11.936;2023-08-01T00:25:16;24.55;81.20
62476;DHT22;50739;45.670;11.936;2023-08-01T00:30:20;24.35;81.55
62476;DHT22;50739;45.670;11.936;2023-08-01T00:35:22;24.43;81.26
62476;DHT22;50739;45.670;11.936;2023-08-01T00:40:29;24.44;81.31
62476;DHT22;50739;45.670;11.936;2023-08-01T00:45:33;24.23;82.11
62476;DHT22;50739;45.670;11.936;2023-08-01T00:50:36;24.35;81.80
62476;DHT22;50739;45.670;11.936;2023-08-01T00:55:39;24.49;80.88
62476;DHT22;50739;45.670;11.936;2023-08-01T01:00:43;24.52;81.04
62476;DHT22;50739;45.670;11.936;2023-08-01T01:05:52;24.32;81.28
62476;DHT22;50739;45.670;11.936;2023-08-01T01:10:55;24.32;80.63
62476;DHT22;50739;45.670;11.936;2023-08-01T01:15:59;24.29;80.88
62476;DHT22;50739;45.670;11.936;2023-08-01T01:21:03;24.02;82.07
62476;DHT22;50739;45.670;11.936;2023-08-01T01:26:07;23.93;82.04
62476;DHT22;50739;45.670;11.936;2023-08-01T01:31:10;23.84;82.55
62476;DHT22;50739;45.670;11.936;2023-08-01T01:36:14;24.01;81.92
62476;DHT22;50739;45.670;11.936;2023-08-01T01:41:17;24.06;81.58
62476;DHT22;50739;45.670;11.936;2023-08-01T01:46:19;24.01;81.62
62476;DHT22;50739;45.670;11.936;2023-08-01T01:51:25;23.89;81.66
62476;DHT22;50739;45.670;11.936;2023-08-01T01:56:27;24.05;81.40
62476;DHT22;50739;45.670;11.936;2023-08-01T02:01:30;24.14;80.39
62476;DHT22;50739;45.670;11.936;2023-08-01T02:06:35;24.15;80.29
62476;DHT22;50739;45.670;11.936;2023-08-01T02:11:37;23.94;81.16
62476;DHT22;50739;45.670;11.936;2023-08-01T02:16:40;23.63;82.08
62476;DHT22;50739;45.670;11.936;2023-08-01T04:07:26;23.54;81.93
62476;DHT22;50739;45.670;11.936;2023-08-01T04:12:29;23.54;81.77
62476;DHT22;50739;45.670;11.936;2023-08-01T04:17:31;23.49;81.89
62476;DHT22;50739;45.670;11.936;2023-08-01T04:22:35;23.39;82.15
62476;DHT22;50739;45.670;11.936;2023-08-01T04:27:37;23.38;82.32
62476;DHT22;50739;45.670;11.936;2023-08-01T04:32:39;23.36;83.61
62476;DHT22;50739;45.670;11.936;2023-08-01T04:37:43;23.27;83.90
62476;DHT22;50739;45.670;11.936;2023-08-01T04:42:45;23.32;84.24
62476;DHT22;50739;45.670;11.936;2023-08-01T04:47:48;23.19;84.79
62476;DHT22;50739;45.670;11.936;2023-08-01T04:52:51;23.26;84.73
62476;DHT22;50739;45.670;11.936;2023-08-01T04:57:54;23.51;84.80
62476;DHT22;50739;45.670;11.936;2023-08-01T05:02:56;23.57;84.26
62476;DHT22;50739;45.670;11.936;2023-08-01T05:08:00;23.64;83.89
62476;DHT22;50739;45.670;11.936;2023-08-01T05:18:19;23.74;83.82
62476;DHT22;50739;45.670;11.936;2023-08-01T05:23:23;23.81;83.59
62476;DHT22;50739;45.670;11.936;2023-08-01T05:28:26;23.95;82.28
62476;DHT22;50739;45.670;11.936;2023-08-01T05:33:29;23.94;82.28
62476;DHT22;50739;45.670;11.936;2023-08-01T05:56:12;23.95;83.99
62476;DHT22;50739;45.670;11.936;2023-08-01T06:01:14;23.81;84.32
62476;DHT22;50739;45.670;11.936;2023-08-01T06:06:17;23.84;84.92
62476;DHT22;50739;45.670;11.936;2023-08-01T06:11:21;23.81;84.79
62476;DHT22;50739;45.670;11.936;2023-08-01T06:16:23;23.97;84.02
62476;DHT22;50739;45.670;11.936;2023-08-01T06:21:26;23.79;85.39
62476;DHT22;50739;45.670;11.936;2023-08-01T06:26:29;23.66;87.15
62476;DHT22;50739;45.670;11.936;2023-08-01T06:31:32;23.59;87.74
62476;DHT22;50739;45.670;11.936;2023-08-01T06:36:34;23.06;89.80
62476;DHT22;50739;45.670;11.936;2023-08-01T06:41:38;22.64;92.60
62476;DHT22;50739;45.670;11.936;2023-08-01T06:46:40;22.75;91.89
62476;DHT22;50739;45.670;11.936;2023-08-01T06:51:43;22.72;92.55
62476;DHT22;50739;45.670;11.936;2023-08-01T06:56:46;22.63;93.36
62476;DHT22;50739;45.670;11.936;2023-08-01T07:01:49;22.69;92.40
62476;DHT22;50739;45.670;11.936;2023-08-01T07:06:51;22.98;91.41
62476;DHT22;50739;45.670;11.936;2023-08-01T07:11:55;22.78;90.58
62476;DHT22;50739;45.670;11.936;2023-08-01T07:16:57;22.79;89.69
62476;DHT22;50739;45.670;11.936;2023-08-01T07:21:59;22.79;89.80
62476;DHT22;50739;45.670;11.936;2023-08-01T07:27:04;22.69;88.98
62476;DHT22;50739;45.670;11.936;2023-08-01T07:32:07;22.76;88.64
62476;DHT22;50739;45.670;11.936;2023-08-01T07:37:09;22.90;89.81
62476;DHT22;50739;45.670;11.936;2023-08-01T07:42:13;22.84;88.56
62476;DHT22;50739;45.670;11.936;2023-08-01T07:47:15;22.88;88.03
62476;DHT22;50739;45.670;11.936;2023-08-01T07:52:17;23.06;88.85
62476;DHT22;50739;45.670;11.936;2023-08-01T07:57:21;23.13;87.67
62476;DHT22;50739;45.670;11.936;2023-08-01T08:02:23;23.24;85.26
62476;DHT22;50739;45.670;11.936;2023-08-01T08:07:25;23.45;85.07
62476;DHT22;50739;45.670;11.936;2023-08-01T08:12:29;23.54;85.11
62476;DHT22;50739;45.670;11.936;2023-08-01T08:17:31;23.61;86.63
62476;DHT22;50739;45.670;11.936;2023-08-01T08:22:34;23.74;86.07
62476;DHT22;50739;45.670;11.936;2023-08-01T08:27:37;23.91;85.07
62476;DHT22;50739;45.670;11.936;2023-08-01T08:32:39;24.04;86.01
62476;DHT22;50739;45.670;11.936;2023-08-01T08:37:42;24.16;85.07
62476;DHT22;50739;45.670;11.936;2023-08-01T08:42:46;24.22;84.99
62476;DHT22;50739;45.670;11.936;2023-08-01T08:47:55;24.30;84.36
62476;DHT22;50739;45.670;11.936;2023-08-01T08:52:58;24.25;83.51
62476;DHT22;50739;45.670;11.936;2023-08-01T08:58:02;24.25;84.12
62476;DHT22;50739;45.670;11.936;2023-08-01T09:03:05;24.40;85.83
62476;DHT22;50739;45.670;11.936;2023-08-01T09:08:13;24.43;83.69
62476;DHT22;50739;45.670;11.936;2023-08-01T09:13:18;24.36;84.43
62476;DHT22;50739;45.670;11.936;2023-08-01T09:18:21;24.48;84.19
62476;DHT22;50739;45.670;11.936;2023-08-01T09:23:24;24.37;83.81
62476;DHT22;50739;45.670;11.936;2023-08-01T09:28:28;24.59;83.79
62476;DHT22;50739;45.670;11.936;2023-08-01T09:33:38;24.99;82.97
62476;DHT22;50739;45.670;11.936;2023-08-01T09:38:41;25.26;82.10
62476;DHT22;50739;45.670;11.936;2023-08-01T09:43:45;25.32;80.87
62476;DHT22;50739;45.670;11.936;2023-08-01T09:48:48;25.50;79.52
62476;DHT22;50739;45.670;11.936;2023-08-01T09:53:52;25.91;79.96
62476;DHT22;50739;45.670;11.936;2023-08-01T09:58:56;26.07;78.53
62476;DHT22;50739;45.670;11.936;2023-08-01T10:03:59;26.29;75.80
62476;DHT22;50739;45.670;11.936;2023-08-01T10:09:01;26.41;76.06
62476;DHT22;50739;45.670;11.936;2023-08-01T10:14:06;26.21;75.02
62476;DHT22;50739;45.670;11.936;2023-08-01T10:19:09;26.27;73.89
62476;DHT22;50739;45.670;11.936;2023-08-01T10:24:13;26.37;75.36
62476;DHT22;50739;45.670;11.936;2023-08-01T10:29:19;26.66;74.82
62476;DHT22;50739;45.670;11.936;2023-08-01T10:34:21;26.96;74.48
62476;DHT22;50739;45.670;11.936;2023-08-01T10:39:25;26.59;77.16
62476;DHT22;50739;45.670;11.936;2023-08-01T10:44:28;26.89;76.54
62476;DHT22;50739;45.670;11.936;2023-08-01T10:49:34;26.97;76.37
62476;DHT22;50739;45.670;11.936;2023-08-01T10:54:36;26.84;75.69
62476;DHT22;50739;45.670;11.936;2023-08-01T10:59:42;26.86;76.33
62476;DHT22;50739;45.670;11.936;2023-08-01T11:04:55;26.96;76.83
62476;DHT22;50739;45.670;11.936;2023-08-01T11:10:05;27.10;75.25
62476;DHT22;50739;45.670;11.936;2023-08-01T11:15:10;27.11;74.99
62476;DHT22;50739;45.670;11.936;2023-08-01T11:20:13;27.30;76.75
62476;DHT22;50739;45.670;11.936;2023-08-01T11:25:15;27.35;74.09
62476;DHT22;50739;45.670;11.936;2023-08-01T11:30:19;27.38;74.64
62476;DHT22;50739;45.670;11.936;2023-08-01T11:35:22;27.49;74.76
62476;DHT22;50739;45.670;11.936;2023-08-01T11:40:25;27.79;75.99
62476;DHT22;50739;45.670;11.936;2023-08-01T11:45:30;27.99;76.43
62476;DHT22;50739;45.670;11.936;2023-08-01T11:50:32;28.27;73.86
62476;DHT22;50739;45.670;11.936;2023-08-01T11:55:35;28.34;74.33
62476;DHT22;50739;45.670;11.936;2023-08-01T12:00:40;28.24;73.77
62476;DHT22;50739;45.670;11.936;2023-08-01T12:05:43;28.27;73.14
62476;DHT22;50739;45.670;11.936;2023-08-01T12:10:46;28.36;74.77
62476;DHT22;50739;45.670;11.936;2023-08-01T12:15:51;28.34;73.39
62476;DHT22;50739;45.670;11.936;2023-08-01T12:20:53;28.33;73.20
62476;DHT22;50739;45.670;11.936;2023-08-01T12:25:56;28.34;72.70
62476;DHT22;50739;45.670;11.936;2023-08-01T12:30:59;28.52;73.68
62476;DHT22;50739;45.670;11.936;2023-08-01T12:36:02;28.72;73.09
62476;DHT22;50739;45.670;11.936;2023-08-01T12:41:04;28.58;72.77
62476;DHT22;50739;45.670;11.936;2023-08-01T12:46:08;28.20;72.02
62476;DHT22;50739;45.670;11.936;2023-08-01T12:51:10;28.40;72.50
62476;DHT22;50739;45.670;11.936;2023-08-01T12:56:12;28.71;72.83
62476;DHT22;50739;45.670;11.936;2023-08-01T13:01:16;28.71;71.37
62476;DHT22;50739;45.670;11.936;2023-08-01T13:06:18;28.83;71.22
62476;DHT22;50739;45.670;11.936;2023-08-01T13:11:21;28.99;71.67
62476;DHT22;50739;45.670;11.936;2023-08-01T13:16:24;28.67;70.42
62476;DHT22;50739;45.670;11.936;2023-08-01T13:21:26;28.68;71.71
62476;DHT22;50739;45.670;11.936;2023-08-01T13:26:29;28.47;69.99
62476;DHT22;50739;45.670;11.936;2023-08-01T13:31:33;28.76;71.78
62476;DHT22;50739;45.670;11.936;2023-08-01T13:36:35;28.80;71.51
62476;DHT22;50739;45.670;11.936;2023-08-01T13:41:37;28.83;71.38
62476;DHT22;50739;45.670;11.936;2023-08-01T13:46:41;28.72;71.28
62476;DHT22;50739;45.670;11.936;2023-08-01T13:51:43;28.51;72.54
62476;DHT22;50739;45.670;11.936;2023-08-01T13:56:45;28.51;71.59
62476;DHT22;50739;45.670;11.936;2023-08-01T14:01:52;28.41;73.16
62476;DHT22;50739;45.670;11.936;2023-08-01T14:06:54;28.41;71.74
62476;DHT22;50739;45.670;11.936;2023-08-01T14:11:57;28.25;72.30
62476;DHT22;50739;45.670;11.936;2023-08-01T14:17:01;28.20;73.14
62476;DHT22;50739;45.670;11.936;2023-08-01T14:22:03;28.10;72.56
62476;DHT22;50739;45.670;11.936;2023-08-01T14:27:06;28.02;73.87
62476;DHT22;50739;45.670;11.936;2023-08-01T14:32:10;27.96;74.44
62476;DHT22;50739;45.670;11.936;2023-08-01T14:37:12;28.12;73.84
62476;DHT22;50739;45.670;11.936;2023-08-01T14:42:14;28.33;71.97
62476;DHT22;50739;45.670;11.936;2023-08-01T14:47:18;28.61;71.29
62476;DHT22;50739;45.670;11.936;2023-08-01T14:52:20;28.43;72.43
62476;DHT22;50739;45.670;11.936;2023-08-01T14:57:23;28.40;71.94
62476;DHT22;50739;45.670;11.936;2023-08-01T15:02:26;28.25;72.37
62476;DHT22;50739;45.670;11.936;2023-08-01T15:07:29;28.33;72.33
62476;DHT22;50739;45.670;11.936;2023-08-01T15:12:32;28.94;70.48
62476;DHT22;50739;45.670;11.936;2023-08-01T15:17:35;29.74;69.04
62476;DHT22;50739;45.670;11.936;2023-08-01T15:22:38;29.17;70.86
62476;DHT22;50739;45.670;11.936;2023-08-01T15:39:06;29.09;71.92
62476;DHT22;50739;45.670;11.936;2023-08-01T15:44:08;29.91;68.62
62476;DHT22;50739;45.670;11.936;2023-08-01T15:49:10;30.29;67.88
62476;DHT22;50739;45.670;11.936;2023-08-01T15:54:14;30.98;66.07
62476;DHT22;50739;45.670;11.936;2023-08-01T15:59:16;30.65;67.06
62476;DHT22;50739;45.670;11.936;2023-08-01T16:04:18;30.64;67.38
62476;DHT22;50739;45.670;11.936;2023-08-01T16:09:22;30.12;69.68
62476;DHT22;50739;45.670;11.936;2023-08-01T16:14:24;29.60;71.39
62476;DHT22;50739;45.670;11.936;2023-08-01T16:19:27;29.53;71.31
62476;DHT22;50739;45.670;11.936;2023-08-01T16:24:31;29.84;70.81
62476;DHT22;50739;45.670;11.936;2023-08-01T16:29:33;29.54;72.06
62476;DHT22;50739;45.670;11.936;2023-08-01T16:34:35;29.00;73.29
62476;DHT22;50739;45.670;11.936;2023-08-01T16:39:39;28.72;74.38
62476;DHT22;50739;45.670;11.936;2023-08-01T16:44:43;28.62;75.59
62476;DHT22;50739;45.670;11.936;2023-08-01T16:49:46;28.51;74.78
62476;DHT22;50739;45.670;11.936;2023-08-01T16:54:50;28.36;75.39
62476;DHT22;50739;45.670;11.936;2023-08-01T16:59:52;28.17;75.91
62476;DHT22;50739;45.670;11.936;2023-08-01T17:04:54;27.97;76.51
62476;DHT22;50739;45.670;11.936;2023-08-01T17:10:00;27.99;76.14
62476;DHT22;50739;45.670;11.936;2023-08-01T17:15:03;27.97;76.68
62476;DHT22;50739;45.670;11.936;2023-08-01T17:20:07;28.13;75.85
62476;DHT22;50739;45.670;11.936;2023-08-01T17:25:11;28.28;75.48
62476;DHT22;50739;45.670;11.936;2023-08-01T17:30:13;28.12;75.54
62476;DHT22;50739;45.670;11.936;2023-08-01T17:35:16;27.95;75.77
62476;DHT22;50739;45.670;11.936;2023-08-01T17:40:19;27.66;77.19
62476;DHT22;50739;45.670;11.936;2023-08-01T17:45:22;27.33;78.06
62476;DHT22;50739;45.670;11.936;2023-08-01T17:50:25;27.28;78.41
62476;DHT22;50739;45.670;11.936;2023-08-01T17:55:28;27.24;78.25
62476;DHT22;50739;45.670;11.936;2023-08-01T18:00:31;27.08;78.57
62476;DHT22;50739;45.670;11.936;2023-08-01T18:05:33;27.01;78.71
62476;DHT22;50739;45.670;11.936;2023-08-01T18:10:37;26.89;79.51
62476;DHT22;50739;45.670;11.936;2023-08-01T18:15:39;26.66;80.51
62476;DHT22;50739;45.670;11.936;2023-08-01T18:20:43;26.57;80.77
62476;DHT22;50739;45.670;11.936;2023-08-01T18:25:47;26.45;81.32
62476;DHT22;50739;45.670;11.936;2023-08-01T18:30:49;26.27;81.86
62476;DHT22;50739;45.670;11.936;2023-08-01T18:35:51;26.21;82.28
62476;DHT22;50739;45.670;11.936;2023-08-01T18:40:55;25.93;81.75
62476;DHT22;50739;45.670;11.936;2023-08-01T18:45:57;25.97;81.59
62476;DHT22;50739;45.670;11.936;2023-08-01T18:51:00;25.89;81.45
62476;DHT22;50739;45.670;11.936;2023-08-01T18:56:08;25.73;81.36
62476;DHT22;50739;45.670;11.936;2023-08-01T19:01:12;25.59;81.89
62476;DHT22;50739;45.670;11.936;2023-08-01T19:06:15;25.52;81.66
62476;DHT22;50739;45.670;11.936;2023-08-01T19:11:19;25.39;82.20
62476;DHT22;50739;45.670;11.936;2023-08-01T19:16:21;25.26;82.47
62476;DHT22;50739;45.670;11.936;2023-08-01T19:21:24;25.11;82.70
62476;DHT22;50739;45.670;11.936;2023-08-01T19:26:27;25.17;81.51
62476;DHT22;50739;45.670;11.936;2023-08-01T19:31:30;24.90;80.87
62476;DHT22;50739;45.670;11.936;2023-08-01T19:36:32;24.61;81.17
62476;DHT22;50739;45.670;11.936;2023-08-01T19:41:36;24.59;80.58
62476;DHT22;50739;45.670;11.936;2023-08-01T19:46:38;24.35;80.03
62476;DHT22;50739;45.670;11.936;2023-08-01T19:51:40;24.05;79.14
62476;DHT22;50739;45.670;11.936;2023-08-01T19:56:44;24.04;78.51
62476;DHT22;50739;45.670;11.936;2023-08-01T20:01:47;23.98;78.84
62476;DHT22;50739;45.670;11.936;2023-08-01T20:06:50;23.89;78.64
62476;DHT22;50739;45.670;11.936;2023-08-01T20:11:53;23.77;78.98
62476;DHT22;50739;45.670;11.936;2023-08-01T20:16:56;23.79;78.91
62476;DHT22;50739;45.670;11.936;2023-08-01T20:21:59;23.75;78.90
62476;DHT22;50739;45.670;11.936;2023-08-01T20:27:03;23.47;80.06
62476;DHT22;50739;45.670;11.936;2023-08-01T20:32:06;23.42;80.60
62476;DHT22;50739;45.670;11.936;2023-08-01T20:37:09;23.34;81.20
62476;DHT22;50739;45.670;11.936;2023-08-01T20:42:12;23.20;81.96
62476;DHT22;50739;45.670;11.936;2023-08-01T20:47:15;23.26;81.87
62476;DHT22;50739;45.670;11.936;2023-08-01T20:52:17;23.22;82.04
62476;DHT22;50739;45.670;11.936;2023-08-01T20:57:21;23.20;81.88
62476;DHT22;50739;45.670;11.936;2023-08-01T21:02:23;23.02;82.29
62476;DHT22;50739;45.670;11.936;2023-08-01T21:07:25;23.09;82.04
62476;DHT22;50739;45.670;11.936;2023-08-01T21:12:30;23.01;82.48
62476;DHT22;50739;45.670;11.936;2023-08-01T21:17:32;22.83;82.49
62476;DHT22;50739;45.670;11.936;2023-08-01T21:22:34;22.84;82.46
62476;DHT22;50739;45.670;11.936;2023-08-01T21:27:38;22.76;81.95
62476;DHT22;50739;45.670;11.936;2023-08-01T21:32:40;22.87;81.74
62476;DHT22;50739;45.670;11.936;2023-08-01T21:37:43;22.69;82.00
62476;DHT22;50739;45.670;11.936;2023-08-01T21:42:47;22.72;81.30
62476;DHT22;50739;45.670;11.936;2023-08-01T21:47:50;22.75;81.70
62476;DHT22;50739;45.670;11.936;2023-08-01T21:52:52;22.57;81.88
62476;DHT22;50739;45.670;11.936;2023-08-01T21:57:56;22.47;81.61
62476;DHT22;50739;45.670;11.936;2023-08-01T22:02:58;22.48;81.37
62476;DHT22;50739;45.670;11.936;2023-08-01T22:08:01;22.56;81.19
62476;DHT22;50739;45.670;11.936;2023-08-01T22:13:05;22.51;80.66
62476;DHT22;50739;45.670;11.936;2023-08-01T22:18:07;22.33;80.65
62476;DHT22;50739;45.670;11.936;2023-08-01T22:23:17;22.36;80.66
62476;DHT22;50739;45.670;11.936;2023-08-01T22:28:21;22.35;80.36
62476;DHT22;50739;45.670;11.936;2023-08-01T22:33:24;22.26;80.44
62476;DHT22;50739;45.670;11.936;2023-08-01T22:38:26;22.35;80.03
62476;DHT22;50739;45.670;11.936;2023-08-01T22:43:30;22.33;79.70
62476;DHT22;50739;45.670;11.936;2023-08-01T22:48:32;22.14;79.44
62476;DHT22;50739;45.670;11.936;2023-08-01T22:53:34;21.92;79.53
62476;DHT22;50739;45.670;11.936;2023-08-01T22:58:38;22.06;79.28
62476;DHT22;50739;45.670;11.936;2023-08-01T23:03:41;22.14;78.93
62476;DHT22;50739;45.670;11.936;2023-08-01T23:08:44;21.99;79.47
62476;DHT22;50739;45.670;11.936;2023-08-01T23:13:48;22.09;78.68
62476;DHT22;50739;45.670;11.936;2023-08-01T23:18:50;22.03;78.94
62476;DHT22;50739;45.670;11.936;2023-08-01T23:23:52;21.96;79.43
62476;DHT22;50739;45.670;11.936;2023-08-01T23:28:56;21.96;79.57
62476;DHT22;50739;45.670;11.936;2023-08-01T23:33:59;22.06;79.05
62476;DHT22;50739;45.670;11.936;2023-08-01T23:39:02;22.00;79.04
62476;DHT22;50739;45.670;11.936;2023-08-01T23:44:06;21.92;78.73
62476;DHT22;50739;45.670;11.936;2023-08-01T23:49:08;21.91;78.32
62476;DHT22;50739;45.670;11.936;2023-08-01T23:54:10;22.06;77.67
62476;DHT22;50739;45.670;11.936;2023-08-01T23:59:14;22.05;77.92
